sensor_id;sensor_type;location;lat;lon;timestamp;pressure;altitude;pressure_sealevel;temperature;humidity
45403;BME280;47427;51.976;5.326;2022-10-15T00:01:21;100701.78;;;11.97;100.00
45403;BME280;47427;51.976;5.326;2022-10-15T00:04:44;100701.00;;;12.02;100.00
45403;BME280;47427;51.976;5.326;2022-10-15T00:08:09;100686.81;;;11.94;100.00
45403;BME280;47427;51.976;5.326;2022-10-15T00:11:32;100702.09;;;12.15;100.00
45403;BME280;47427;51.976;5.326;2022-10-15T00:14:55;100700.41;;;12.20;100.00
45403;BME280;47427;51.976;5.326;2022-10-15T00:18:17;100695.94;;;12.14;100.00
45403;BME280;47427;51.976;5.326;2022-10-15T00:21:40;100694.19;;;12.15;100.00
45403;BME280;47427;51.976;5.326;2022-10-15T00:25:04;100690.72;;;12.16;100.00
45403;BME280;47427;51.976;5.326;2022-10-15T00:28:27;100688.09;;;12.18;100.00
45403;BME280;47427;51.976;5.326;2022-10-15T00:31:51;100686.31;;;12.15;100.00
45403;BME280;47427;51.976;5.326;2022-10-15T00:35:14;100682.13;;;12.26;100.00
45403;BME280;47427;51.976;5.326;2022-10-15T00:38:36;100687.34;;;12.23;100.00
45403;BME280;47427;51.976;5.326;2022-10-15T00:41:59;100686.44;;;12.21;100.00
45403;BME280;47427;51.976;5.326;2022-10-15T00:45:23;100684.66;;;12.20;100.00
45403;BME280;47427;51.976;5.326;2022-10-15T00:48:50;100685.22;;;12.02;100.00
45403;BME280;47427;51.976;5.326;2022-10-15T00:52:43;100683.38;;;11.95;100.00
45403;BME280;47427;51.976;5.326;2022-10-15T00:56:07;100680.69;;;11.93;100.00
45403;BME280;47427;51.976;5.326;2022-10-15T00:59:31;100692.28;;;12.05;100.00
45403;BME280;47427;51.976;5.326;2022-10-15T01:02:56;100674.72;;;12.04;100.00
45403;BME280;47427;51.976;5.326;2022-10-15T01:06:19;100691.59;;;12.17;100.00
45403;BME280;47427;51.976;5.326;2022-10-15T01:09:41;100697.09;;;12.29;100.00
45403;BME280;47427;51.976;5.326;2022-10-15T01:13:22;100688.31;;;12.30;100.00
45403;BME280;47427;51.976;5.326;2022-10-15T01:17:04;100689.31;;;12.36;100.00
45403;BME280;47427;51.976;5.326;2022-10-15T01:24:48;100660.13;;;12.21;100.00
45403;BME280;47427;51.976;5.326;2022-10-15T01:28:47;100661.63;;;12.07;100.00
45403;BME280;47427;51.976;5.326;2022-10-15T01:32:22;100664.69;;;11.83;100.00
45403;BME280;47427;51.976;5.326;2022-10-15T01:39:41;100670.03;;;11.87;100.00
45403;BME280;47427;51.976;5.326;2022-10-15T01:43:14;100667.72;;;12.03;100.00
45403;BME280;47427;51.976;5.326;2022-10-15T01:47:06;100655.53;;;12.08;100.00
45403;BME280;47427;51.976;5.326;2022-10-15T01:50:32;100653.16;;;12.23;100.00
45403;BME280;47427;51.976;5.326;2022-10-15T01:53:58;100645.25;;;12.23;100.00
45403;BME280;47427;51.976;5.326;2022-10-15T01:57:24;100633.91;;;12.26;100.00
45403;BME280;47427;51.976;5.326;2022-10-15T02:00:49;100638.38;;;12.31;100.00
45403;BME280;47427;51.976;5.326;2022-10-15T02:04:26;100646.28;;;12.33;100.00
45403;BME280;47427;51.976;5.326;2022-10-15T02:08:25;100651.56;;;12.34;100.00
45403;BME280;47427;51.976;5.326;2022-10-15T02:19:59;100624.34;;;12.31;100.00
45403;BME280;47427;51.976;5.326;2022-10-15T02:27:01;100622.63;;;12.34;100.00
45403;BME280;47427;51.976;5.326;2022-10-15T02:30:27;100609.47;;;12.34;100.00
45403;BME280;47427;51.976;5.326;2022-10-15T02:33:54;100615.72;;;12.41;100.00
45403;BME280;47427;51.976;5.326;2022-10-15T02:37:24;100591.97;;;12.36;100.00
45403;BME280;47427;51.976;5.326;2022-10-15T02:40:49;100603.47;;;12.45;100.00
45403;BME280;47427;51.976;5.326;2022-10-15T02:44:12;100597.19;;;12.35;100.00
45403;BME280;47427;51.976;5.326;2022-10-15T02:47:34;100597.22;;;12.38;100.00
45403;BME280;47427;51.976;5.326;2022-10-15T02:50:57;100592.03;;;12.43;100.00
45403;BME280;47427;51.976;5.326;2022-10-15T02:54:22;100587.34;;;12.22;100.00
45403;BME280;47427;51.976;5.326;2022-10-15T02:57:46;100574.25;;;12.25;100.00
45403;BME280;47427;51.976;5.326;2022-10-15T03:01:08;100561.63;;;12.01;100.00
45403;BME280;47427;51.976;5.326;2022-10-15T03:04:31;100576.31;;;11.89;100.00
45403;BME280;47427;51.976;5.326;2022-10-15T03:07:54;100578.66;;;11.74;100.00
45403;BME280;47427;51.976;5.326;2022-10-15T03:11:17;100583.78;;;11.66;100.00
45403;BME280;47427;51.976;5.326;2022-10-15T03:14:40;100580.09;;;11.57;100.00
45403;BME280;47427;51.976;5.326;2022-10-15T03:18:04;100574.84;;;11.55;100.00
45403;BME280;47427;51.976;5.326;2022-10-15T03:21:27;100563.28;;;11.45;100.00
45403;BME280;47427;51.976;5.326;2022-10-15T03:24:58;100555.19;;;11.33;100.00
45403;BME280;47427;51.976;5.326;2022-10-15T03:28:22;100563.00;;;11.30;100.00
45403;BME280;47427;51.976;5.326;2022-10-15T03:31:45;100558.44;;;11.21;100.00
45403;BME280;47427;51.976;5.326;2022-10-15T03:35:08;100561.00;;;11.17;100.00
45403;BME280;47427;51.976;5.326;2022-10-15T03:38:31;100566.06;;;11.07;100.00
45403;BME280;47427;51.976;5.326;2022-10-15T03:41:54;100543.91;;;10.92;100.00
45403;BME280;47427;51.976;5.326;2022-10-15T03:45:25;100561.47;;;10.96;100.00
45403;BME280;47427;51.976;5.326;2022-10-15T03:49:12;100566.69;;;10.94;100.00
45403;BME280;47427;51.976;5.326;2022-10-15T03:52:38;100556.94;;;10.87;100.00
45403;BME280;47427;51.976;5.326;2022-10-15T03:56:04;100563.16;;;10.94;100.00
45403;BME280;47427;51.976;5.326;2022-10-15T03:59:31;100567.53;;;10.93;100.00
45403;BME280;47427;51.976;5.326;2022-10-15T04:02:56;100563.00;;;10.86;100.00
45403;BME280;47427;51.976;5.326;2022-10-15T04:06:38;100574.44;;;10.88;100.00
45403;BME280;47427;51.976;5.326;2022-10-15T04:10:07;100581.53;;;10.92;100.00
45403;BME280;47427;51.976;5.326;2022-10-15T04:13:33;100570.16;;;10.93;100.00
45403;BME280;47427;51.976;5.326;2022-10-15T04:16:56;100565.78;;;10.94;100.00
45403;BME280;47427;51.976;5.326;2022-10-15T04:20:21;100579.97;;;11.03;100.00
45403;BME280;47427;51.976;5.326;2022-10-15T04:23:44;100570.31;;;11.01;100.00
45403;BME280;47427;51.976;5.326;2022-10-15T04:27:21;100578.19;;;11.01;100.00
45403;BME280;47427;51.976;5.326;2022-10-15T04:30:44;100587.88;;;11.03;100.00
45403;BME280;47427;51.976;5.326;2022-10-15T04:34:08;100589.59;;;11.03;100.00
45403;BME280;47427;51.976;5.326;2022-10-15T04:37:35;100597.59;;;11.07;100.00
45403;BME280;47427;51.976;5.326;2022-10-15T04:41:04;100604.06;;;11.25;100.00
45403;BME280;47427;51.976;5.326;2022-10-15T04:44:42;100581.44;;;11.33;100.00
45403;BME280;47427;51.976;5.326;2022-10-15T04:48:24;100595.31;;;11.24;100.00
45403;BME280;47427;51.976;5.326;2022-10-15T04:51:48;100594.25;;;11.16;100.00
45403;BME280;47427;51.976;5.326;2022-10-15T04:55:16;100581.06;;;11.13;100.00
45403;BME280;47427;51.976;5.326;2022-10-15T04:58:39;100583.94;;;11.25;100.00
45403;BME280;47427;51.976;5.326;2022-10-15T05:02:05;100575.22;;;11.28;100.00
45403;BME280;47427;51.976;5.326;2022-10-15T05:05:28;100576.28;;;11.38;100.00
45403;BME280;47427;51.976;5.326;2022-10-15T05:08:53;100573.00;;;11.51;100.00
45403;BME280;47427;51.976;5.326;2022-10-15T05:12:21;100569.81;;;11.69;100.00
45403;BME280;47427;51.976;5.326;2022-10-15T05:15:44;100591.94;;;11.82;100.00
45403;BME280;47427;51.976;5.326;2022-10-15T05:19:09;100571.69;;;11.76;100.00
45403;BME280;47427;51.976;5.326;2022-10-15T05:22:34;100591.19;;;11.87;100.00
45403;BME280;47427;51.976;5.326;2022-10-15T05:26:06;100577.19;;;11.88;100.00
45403;BME280;47427;51.976;5.326;2022-10-15T05:29:29;100580.81;;;11.97;100.00
45403;BME280;47427;51.976;5.326;2022-10-15T05:32:53;100580.03;;;12.02;100.00
45403;BME280;47427;51.976;5.326;2022-10-15T05:36:25;100569.50;;;12.01;100.00
45403;BME280;47427;51.976;5.326;2022-10-15T05:39:49;100572.38;;;12.16;100.00
45403;BME280;47427;51.976;5.326;2022-10-15T05:43:12;100574.88;;;12.08;100.00
45403;BME280;47427;51.976;5.326;2022-10-15T05:46:35;100574.84;;;12.05;100.00
45403;BME280;47427;51.976;5.326;2022-10-15T05:49:58;100583.78;;;12.17;100.00
45403;BME280;47427;51.976;5.326;2022-10-15T05:53:26;100579.53;;;12.26;100.00
45403;BME280;47427;51.976;5.326;2022-10-15T05:57:02;100572.56;;;12.30;100.00
45403;BME280;47427;51.976;5.326;2022-10-15T06:00:24;100559.50;;;12.34;100.00
45403;BME280;47427;51.976;5.326;2022-10-15T06:03:47;100558.59;;;12.35;100.00
45403;BME280;47427;51.976;5.326;2022-10-15T06:07:10;100559.41;;;12.28;100.00
45403;BME280;47427;51.976;5.326;2022-10-15T06:10:35;100561.13;;;12.28;100.00
45403;BME280;47427;51.976;5.326;2022-10-15T06:13:59;100555.38;;;12.53;100.00
45403;BME280;47427;51.976;5.326;2022-10-15T06:17:22;100553.56;;;12.49;100.00
45403;BME280;47427;51.976;5.326;2022-10-15T06:20:53;100550.97;;;12.52;100.00
45403;BME280;47427;51.976;5.326;2022-10-15T06:24:16;100566.00;;;12.61;100.00
45403;BME280;47427;51.976;5.326;2022-10-15T06:27:38;100564.97;;;12.50;100.00
45403;BME280;47427;51.976;5.326;2022-10-15T06:31:01;100574.75;;;12.60;100.00
45403;BME280;47427;51.976;5.326;2022-10-15T06:34:25;100561.78;;;12.75;100.00
45403;BME280;47427;51.976;5.326;2022-10-15T06:37:48;100561.03;;;12.84;100.00
45403;BME280;47427;51.976;5.326;2022-10-15T06:41:11;100553.22;;;12.92;100.00
45403;BME280;47427;51.976;5.326;2022-10-15T06:44:34;100557.66;;;12.94;100.00
45403;BME280;47427;51.976;5.326;2022-10-15T06:47:56;100566.50;;;13.02;100.00
45403;BME280;47427;51.976;5.326;2022-10-15T06:51:19;100574.72;;;13.29;100.00
45403;BME280;47427;51.976;5.326;2022-10-15T06:54:44;100567.75;;;13.34;100.00
45403;BME280;47427;51.976;5.326;2022-10-15T06:58:08;100558.66;;;13.07;100.00
45403;BME280;47427;51.976;5.326;2022-10-15T07:01:31;100574.59;;;13.18;100.00
45403;BME280;47427;51.976;5.326;2022-10-15T07:04:54;100578.09;;;13.17;100.00
45403;BME280;47427;51.976;5.326;2022-10-15T07:08:17;100575.63;;;13.31;100.00
45403;BME280;47427;51.976;5.326;2022-10-15T07:11:40;100575.44;;;13.15;100.00
45403;BME280;47427;51.976;5.326;2022-10-15T07:15:03;100584.22;;;13.14;100.00
45403;BME280;47427;51.976;5.326;2022-10-15T07:18:25;100595.81;;;13.29;100.00
45403;BME280;47427;51.976;5.326;2022-10-15T07:21:48;100586.00;;;13.17;100.00
45403;BME280;47427;51.976;5.326;2022-10-15T07:25:12;100580.00;;;13.29;100.00
45403;BME280;47427;51.976;5.326;2022-10-15T07:28:36;100572.13;;;13.30;100.00
45403;BME280;47427;51.976;5.326;2022-10-15T07:32:18;100567.81;;;13.37;100.00
45403;BME280;47427;51.976;5.326;2022-10-15T07:35:41;100561.84;;;13.59;100.00
45403;BME280;47427;51.976;5.326;2022-10-15T07:39:03;100556.66;;;13.65;100.00
45403;BME280;47427;51.976;5.326;2022-10-15T07:42:27;100555.84;;;13.73;100.00
45403;BME280;47427;51.976;5.326;2022-10-15T07:45:49;100563.91;;;13.93;100.00
45403;BME280;47427;51.976;5.326;2022-10-15T07:49:12;100551.41;;;13.72;100.00
45403;BME280;47427;51.976;5.326;2022-10-15T07:52:38;100557.75;;;13.92;100.00
45403;BME280;47427;51.976;5.326;2022-10-15T07:56:05;100563.09;;;14.01;100.00
45403;BME280;47427;51.976;5.326;2022-10-15T07:59:33;100552.69;;;14.23;100.00
45403;BME280;47427;51.976;5.326;2022-10-15T08:02:55;100557.13;;;14.27;100.00
45403;BME280;47427;51.976;5.326;2022-10-15T08:06:18;100557.22;;;14.44;100.00
45403;BME280;47427;51.976;5.326;2022-10-15T08:09:41;100555.41;;;14.34;100.00
45403;BME280;47427;51.976;5.326;2022-10-15T08:13:04;100536.38;;;15.04;99.07
45403;BME280;47427;51.976;5.326;2022-10-15T08:16:27;100531.88;;;16.73;91.34
45403;BME280;47427;51.976;5.326;2022-10-15T08:19:52;100526.25;;;17.41;87.51
45403;BME280;47427;51.976;5.326;2022-10-15T08:23:15;100523.13;;;18.82;81.60
45403;BME280;47427;51.976;5.326;2022-10-15T08:26:38;100522.66;;;19.16;77.55
45403;BME280;47427;51.976;5.326;2022-10-15T08:30:01;100521.38;;;19.99;75.90
45403;BME280;47427;51.976;5.326;2022-10-15T08:33:24;100511.94;;;18.54;78.23
45403;BME280;47427;51.976;5.326;2022-10-15T08:36:47;100509.09;;;18.70;78.89
45403;BME280;47427;51.976;5.326;2022-10-15T08:40:11;100511.31;;;17.30;80.87
45403;BME280;47427;51.976;5.326;2022-10-15T08:43:40;100519.47;;;16.94;84.34
45403;BME280;47427;51.976;5.326;2022-10-15T08:51:08;100508.78;;;17.06;84.85
45403;BME280;47427;51.976;5.326;2022-10-15T08:54:33;100512.44;;;16.76;85.26
45403;BME280;47427;51.976;5.326;2022-10-15T08:58:16;100503.66;;;16.71;85.91
45403;BME280;47427;51.976;5.326;2022-10-15T09:02:02;100504.63;;;16.45;86.97
45403;BME280;47427;51.976;5.326;2022-10-15T09:09:34;100506.53;;;15.74;90.16
45403;BME280;47427;51.976;5.326;2022-10-15T09:13:03;100493.28;;;15.94;90.27
45403;BME280;47427;51.976;5.326;2022-10-15T09:16:34;100482.66;;;16.18;89.89
45403;BME280;47427;51.976;5.326;2022-10-15T09:20:25;100485.94;;;16.88;86.66
45403;BME280;47427;51.976;5.326;2022-10-15T09:23:48;100476.78;;;17.38;83.94
45403;BME280;47427;51.976;5.326;2022-10-15T09:27:33;100479.56;;;18.23;80.40
45403;BME280;47427;51.976;5.326;2022-10-15T09:30:56;100468.63;;;17.61;81.04
45403;BME280;47427;51.976;5.326;2022-10-15T09:34:43;100468.84;;;17.33;83.41
45403;BME280;47427;51.976;5.326;2022-10-15T09:38:53;100457.47;;;17.16;83.81
45403;BME280;47427;51.976;5.326;2022-10-15T09:42:35;100458.31;;;17.23;83.92
45403;BME280;47427;51.976;5.326;2022-10-15T09:45:58;100458.63;;;16.66;86.49
45403;BME280;47427;51.976;5.326;2022-10-15T09:49:26;100462.25;;;16.45;87.75
45403;BME280;47427;51.976;5.326;2022-10-15T09:56:49;100455.22;;;16.49;88.15
45403;BME280;47427;51.976;5.326;2022-10-15T10:00:12;100441.19;;;16.14;89.91
45403;BME280;47427;51.976;5.326;2022-10-15T10:03:35;100440.41;;;15.81;91.51
45403;BME280;47427;51.976;5.326;2022-10-15T10:07:03;100438.66;;;15.14;95.40
45403;BME280;47427;51.976;5.326;2022-10-15T10:10:29;100450.91;;;14.83;98.69
45403;BME280;47427;51.976;5.326;2022-10-15T10:13:59;100453.56;;;14.88;100.00
45403;BME280;47427;51.976;5.326;2022-10-15T10:17:26;100437.75;;;15.20;100.00
45403;BME280;47427;51.976;5.326;2022-10-15T10:21:06;100431.56;;;15.06;100.00
45403;BME280;47427;51.976;5.326;2022-10-15T10:24:32;100435.09;;;14.97;100.00
45403;BME280;47427;51.976;5.326;2022-10-15T10:31:34;100435.09;;;14.86;100.00
45403;BME280;47427;51.976;5.326;2022-10-15T10:35:05;100434.19;;;14.87;100.00
45403;BME280;47427;51.976;5.326;2022-10-15T10:38:38;100436.75;;;14.63;100.00
45403;BME280;47427;51.976;5.326;2022-10-15T10:42:22;100436.75;;;14.57;100.00
45403;BME280;47427;51.976;5.326;2022-10-15T10:46:01;100432.25;;;14.40;100.00
45403;BME280;47427;51.976;5.326;2022-10-15T10:49:36;100439.31;;;14.47;100.00
45403;BME280;47427;51.976;5.326;2022-10-15T10:53:24;100422.56;;;14.28;100.00
45403;BME280;47427;51.976;5.326;2022-10-15T10:56:46;100440.19;;;14.39;100.00
45403;BME280;47427;51.976;5.326;2022-10-15T11:00:24;100444.72;;;14.72;100.00
45403;BME280;47427;51.976;5.326;2022-10-15T11:03:51;100437.69;;;14.77;100.00
45403;BME280;47427;51.976;5.326;2022-10-15T11:07:38;100426.28;;;14.84;100.00
45403;BME280;47427;51.976;5.326;2022-10-15T11:18:55;100420.97;;;14.86;100.00
45403;BME280;47427;51.976;5.326;2022-10-15T11:30:15;100406.91;;;14.98;100.00
45403;BME280;47427;51.976;5.326;2022-10-15T11:41:48;100403.41;;;15.40;100.00
45403;BME280;47427;51.976;5.326;2022-10-15T11:57:16;100401.63;;;15.57;100.00
45403;BME280;47427;51.976;5.326;2022-10-15T12:00:49;100391.06;;;15.57;100.00
45403;BME280;47427;51.976;5.326;2022-10-15T12:08:05;100385.72;;;15.67;100.00
45403;BME280;47427;51.976;5.326;2022-10-15T12:15:29;100384.81;;;15.91;100.00
45403;BME280;47427;51.976;5.326;2022-10-15T12:19:24;100390.06;;;16.06;100.00
45403;BME280;47427;51.976;5.326;2022-10-15T12:26:39;100376.56;;;16.61;100.00
45403;BME280;47427;51.976;5.326;2022-10-15T12:33:55;100385.50;;;16.42;100.00
45403;BME280;47427;51.976;5.326;2022-10-15T12:37:18;100364.31;;;16.43;100.00
45403;BME280;47427;51.976;5.326;2022-10-15T12:40:43;100384.47;;;16.69;100.00
45403;BME280;47427;51.976;5.326;2022-10-15T12:44:17;100383.53;;;16.76;100.00
45403;BME280;47427;51.976;5.326;2022-10-15T12:48:11;100390.38;;;17.08;100.00
45403;BME280;47427;51.976;5.326;2022-10-15T12:51:36;100388.94;;;17.69;100.00
45403;BME280;47427;51.976;5.326;2022-10-15T12:55:30;100402.22;;;17.70;100.00
45403;BME280;47427;51.976;5.326;2022-10-15T12:58:55;100406.72;;;17.59;100.00
45403;BME280;47427;51.976;5.326;2022-10-15T13:02:38;100396.22;;;17.50;100.00
45403;BME280;47427;51.976;5.326;2022-10-15T13:09:47;100401.53;;;17.50;99.64
45403;BME280;47427;51.976;5.326;2022-10-15T13:13:25;100402.13;;;17.78;98.47
45403;BME280;47427;51.976;5.326;2022-10-15T13:16:49;100397.47;;;18.00;96.71
45403;BME280;47427;51.976;5.326;2022-10-15T13:20:33;100400.50;;;17.65;97.17
45403;BME280;47427;51.976;5.326;2022-10-15T13:23:56;100412.50;;;17.07;98.10
45403;BME280;47427;51.976;5.326;2022-10-15T13:27:33;100413.28;;;17.18;99.05
45403;BME280;47427;51.976;5.326;2022-10-15T13:31:05;100421.59;;;17.77;96.45
45403;BME280;47427;51.976;5.326;2022-10-15T13:34:33;100417.16;;;17.82;95.56
45403;BME280;47427;51.976;5.326;2022-10-15T13:37:57;100428.06;;;17.50;95.65
45403;BME280;47427;51.976;5.326;2022-10-15T13:41:35;100424.72;;;17.23;96.44
45403;BME280;47427;51.976;5.326;2022-10-15T13:48:40;100444.88;;;17.47;96.18
45403;BME280;47427;51.976;5.326;2022-10-15T13:52:02;100424.44;;;17.57;94.89
45403;BME280;47427;51.976;5.326;2022-10-15T13:55:30;100433.06;;;17.79;94.64
45403;BME280;47427;51.976;5.326;2022-10-15T13:58:56;100420.19;;;18.27;92.16
45403;BME280;47427;51.976;5.326;2022-10-15T14:02:18;100425.84;;;18.69;89.81
45403;BME280;47427;51.976;5.326;2022-10-15T14:05:44;100446.50;;;18.47;89.02
45403;BME280;47427;51.976;5.326;2022-10-15T14:09:47;100449.22;;;19.09;87.26
45403;BME280;47427;51.976;5.326;2022-10-15T14:13:09;100458.19;;;19.56;84.02
45403;BME280;47427;51.976;5.326;2022-10-15T14:16:44;100464.63;;;20.41;80.79
45403;BME280;47427;51.976;5.326;2022-10-15T14:20:14;100457.69;;;21.88;75.09
45403;BME280;47427;51.976;5.326;2022-10-15T14:23:41;100473.44;;;21.27;73.88
45403;BME280;47427;51.976;5.326;2022-10-15T14:27:14;100474.44;;;21.94;70.59
45403;BME280;47427;51.976;5.326;2022-10-15T14:30:40;100479.34;;;21.77;69.15
45403;BME280;47427;51.976;5.326;2022-10-15T14:34:34;100483.41;;;21.18;73.01
45403;BME280;47427;51.976;5.326;2022-10-15T14:41:31;100496.78;;;19.85;73.71
45403;BME280;47427;51.976;5.326;2022-10-15T14:44:54;100509.47;;;19.10;74.58
45403;BME280;47427;51.976;5.326;2022-10-15T14:51:59;100523.84;;;18.21;77.62
45403;BME280;47427;51.976;5.326;2022-10-15T14:58:52;100521.28;;;18.07;78.63
45403;BME280;47427;51.976;5.326;2022-10-15T15:02:15;100517.78;;;18.05;78.68
45403;BME280;47427;51.976;5.326;2022-10-15T15:05:52;100524.22;;;17.81;78.67
45403;BME280;47427;51.976;5.326;2022-10-15T15:09:15;100541.06;;;17.69;78.23
45403;BME280;47427;51.976;5.326;2022-10-15T15:12:38;100528.72;;;17.64;77.25
45403;BME280;47427;51.976;5.326;2022-10-15T15:16:04;100537.66;;;17.53;77.17
45403;BME280;47427;51.976;5.326;2022-10-15T15:19:26;100539.50;;;17.44;77.46
45403;BME280;47427;51.976;5.326;2022-10-15T15:22:51;100544.06;;;17.19;78.86
45403;BME280;47427;51.976;5.326;2022-10-15T15:26:14;100542.41;;;16.96;79.48
45403;BME280;47427;51.976;5.326;2022-10-15T15:29:36;100549.59;;;16.65;80.10
45403;BME280;47427;51.976;5.326;2022-10-15T15:32:58;100544.31;;;16.60;81.27
45403;BME280;47427;51.976;5.326;2022-10-15T15:36:22;100545.25;;;16.49;81.24
45403;BME280;47427;51.976;5.326;2022-10-15T15:39:43;100542.63;;;16.27;81.62
45403;BME280;47427;51.976;5.326;2022-10-15T15:43:25;100540.00;;;16.07;81.88
45403;BME280;47427;51.976;5.326;2022-10-15T15:46:46;100549.72;;;15.99;82.21
45403;BME280;47427;51.976;5.326;2022-10-15T15:50:11;100555.03;;;15.93;83.17
45403;BME280;47427;51.976;5.326;2022-10-15T15:53:35;100565.63;;;15.88;83.53
45403;BME280;47427;51.976;5.326;2022-10-15T15:56:58;100566.50;;;15.70;83.87
45403;BME280;47427;51.976;5.326;2022-10-15T16:00:19;100577.94;;;15.69;84.87
45403;BME280;47427;51.976;5.326;2022-10-15T16:03:42;100575.25;;;15.61;85.24
45403;BME280;47427;51.976;5.326;2022-10-15T16:07:03;100568.19;;;15.54;84.96
45403;BME280;47427;51.976;5.326;2022-10-15T16:10:26;100577.88;;;15.35;85.22
45403;BME280;47427;51.976;5.326;2022-10-15T16:13:49;100576.03;;;15.19;86.21
45403;BME280;47427;51.976;5.326;2022-10-15T16:17:10;100562.78;;;15.04;86.94
45403;BME280;47427;51.976;5.326;2022-10-15T16:20:34;100579.47;;;14.90;87.50
45403;BME280;47427;51.976;5.326;2022-10-15T16:24:00;100575.84;;;14.67;88.37
45403;BME280;47427;51.976;5.326;2022-10-15T16:27:23;100585.44;;;14.51;89.53
45403;BME280;47427;51.976;5.326;2022-10-15T16:30:48;100587.97;;;14.37;90.30
45403;BME280;47427;51.976;5.326;2022-10-15T16:34:10;100596.66;;;14.19;91.00
45403;BME280;47427;51.976;5.326;2022-10-15T16:37:33;100607.97;;;14.03;91.79
45403;BME280;47427;51.976;5.326;2022-10-15T16:40:56;100602.56;;;13.87;92.05
45403;BME280;47427;51.976;5.326;2022-10-15T16:44:17;100616.50;;;13.76;92.37
45403;BME280;47427;51.976;5.326;2022-10-15T16:47:40;100607.56;;;13.60;92.97
45403;BME280;47427;51.976;5.326;2022-10-15T16:51:05;100617.09;;;13.46;93.44
45403;BME280;47427;51.976;5.326;2022-10-15T16:54:30;100625.84;;;13.43;93.53
45403;BME280;47427;51.976;5.326;2022-10-15T16:57:52;100622.16;;;13.29;93.90
45403;BME280;47427;51.976;5.326;2022-10-15T17:01:18;100628.19;;;13.20;94.32
45403;BME280;47427;51.976;5.326;2022-10-15T17:04:41;100636.91;;;13.16;94.41
45403;BME280;47427;51.976;5.326;2022-10-15T17:08:03;100639.47;;;13.11;94.64
45403;BME280;47427;51.976;5.326;2022-10-15T17:11:36;100636.72;;;13.00;95.03
45403;BME280;47427;51.976;5.326;2022-10-15T17:14:59;100634.84;;;12.93;95.22
45403;BME280;47427;51.976;5.326;2022-10-15T17:18:20;100651.69;;;13.05;95.24
45403;BME280;47427;51.976;5.326;2022-10-15T17:21:41;100663.94;;;13.01;95.15
45403;BME280;47427;51.976;5.326;2022-10-15T17:25:04;100664.84;;;13.01;95.34
45403;BME280;47427;51.976;5.326;2022-10-15T17:28:26;100670.84;;;12.91;95.70
45403;BME280;47427;51.976;5.326;2022-10-15T17:31:49;100682.25;;;12.92;95.47
45403;BME280;47427;51.976;5.326;2022-10-15T17:35:11;100671.63;;;12.84;95.79
45403;BME280;47427;51.976;5.326;2022-10-15T17:38:33;100689.97;;;12.81;96.31
45403;BME280;47427;51.976;5.326;2022-10-15T17:41:54;100679.25;;;12.67;96.52
45403;BME280;47427;51.976;5.326;2022-10-15T17:45:16;100694.28;;;12.74;96.38
45403;BME280;47427;51.976;5.326;2022-10-15T17:48:38;100683.53;;;12.61;96.54
45403;BME280;47427;51.976;5.326;2022-10-15T17:52:01;100705.53;;;12.64;96.91
45403;BME280;47427;51.976;5.326;2022-10-15T17:55:23;100701.09;;;12.60;96.81
45403;BME280;47427;51.976;5.326;2022-10-15T17:59:08;100709.69;;;12.50;97.74
45403;BME280;47427;51.976;5.326;2022-10-15T18:02:32;100682.41;;;12.43;97.47
45403;BME280;47427;51.976;5.326;2022-10-15T18:05:54;100711.50;;;12.52;97.54
45403;BME280;47427;51.976;5.326;2022-10-15T18:09:17;100723.94;;;12.61;97.17
45403;BME280;47427;51.976;5.326;2022-10-15T18:12:39;100743.34;;;12.69;97.09
45403;BME280;47427;51.976;5.326;2022-10-15T18:16:00;100733.78;;;12.74;96.77
45403;BME280;47427;51.976;5.326;2022-10-15T18:19:24;100735.50;;;12.72;96.77
45403;BME280;47427;51.976;5.326;2022-10-15T18:22:46;100730.94;;;12.62;97.33
45403;BME280;47427;51.976;5.326;2022-10-15T18:26:16;100760.97;;;12.75;97.07
45403;BME280;47427;51.976;5.326;2022-10-15T18:29:38;100750.50;;;12.78;97.13
45403;BME280;47427;51.976;5.326;2022-10-15T18:33:01;100736.53;;;12.84;97.19
45403;BME280;47427;51.976;5.326;2022-10-15T18:36:29;100741.22;;;13.01;96.46
45403;BME280;47427;51.976;5.326;2022-10-15T18:39:51;100730.84;;;13.15;95.74
45403;BME280;47427;51.976;5.326;2022-10-15T18:43:13;100741.63;;;13.31;94.75
45403;BME280;47427;51.976;5.326;2022-10-15T18:46:36;100746.09;;;13.35;93.61
45403;BME280;47427;51.976;5.326;2022-10-15T18:50:00;100741.72;;;13.37;93.24
45403;BME280;47427;51.976;5.326;2022-10-15T18:53:23;100737.31;;;13.34;92.81
45403;BME280;47427;51.976;5.326;2022-10-15T18:56:50;100738.19;;;13.36;92.64
45403;BME280;47427;51.976;5.326;2022-10-15T19:00:14;100739.13;;;13.40;92.01
45403;BME280;47427;51.976;5.326;2022-10-15T19:03:37;100734.00;;;13.51;92.02
45403;BME280;47427;51.976;5.326;2022-10-15T19:07:02;100749.88;;;13.57;91.10
45403;BME280;47427;51.976;5.326;2022-10-15T19:10:24;100749.03;;;13.59;90.80
45403;BME280;47427;51.976;5.326;2022-10-15T19:14:06;100750.06;;;13.71;90.24
45403;BME280;47427;51.976;5.326;2022-10-15T19:17:29;100752.69;;;13.71;89.75
45403;BME280;47427;51.976;5.326;2022-10-15T19:20:52;100754.44;;;13.72;89.64
45403;BME280;47427;51.976;5.326;2022-10-15T19:24:17;100763.38;;;13.83;89.23
45403;BME280;47427;51.976;5.326;2022-10-15T19:27:38;100753.69;;;13.80;88.56
45403;BME280;47427;51.976;5.326;2022-10-15T19:31:04;100769.56;;;13.85;88.36
45403;BME280;47427;51.976;5.326;2022-10-15T19:34:30;100762.53;;;13.85;87.92
45403;BME280;47427;51.976;5.326;2022-10-15T19:37:53;100770.59;;;13.99;87.52
45403;BME280;47427;51.976;5.326;2022-10-15T19:41:17;100763.53;;;13.95;86.91